Time;durP1;ratioP1;P1;durP2;ratioP2;P2;SDS_P1;SDS_P2;PMS_P1;PMS_P2;Temp;Humidity;BMP_temperature;BMP_pressure;BME280_temperature;BME280_humidity;BME280_pressure;Samples;Min_cycle;Max_cycle;Signal;HPM_P1;HPM_P2
2022/12/09 00:00:45;;;;;;;;;;;;;;;;;;4989332;28;19931;-89
2022/12/09 00:03:11;;;;;;;;;;;;;;;;;;5006185;28;20034;-89
2022/12/09 00:05:37;;;;;;;;;;;;;;;;;;5005949;28;20411;-89
2022/12/09 00:08:03;;;;;;;;;;;;;;;;;;5005836;28;19980;-89
2022/12/09 00:10:29;;;;;;;;;;;;;;;;;;5005764;28;19926;-89
2022/12/09 00:12:55;;;;;;;;;;;;;;;;;;4989293;28;20290;-89
2022/12/09 00:15:21;;;;;;;;;;;;;;;;;;5005585;28;19926;-89
2022/12/09 00:17:47;;;;;;;;;;;;;;;;;;4989285;28;19929;-89
2022/12/09 00:20:13;;;;;;;;;;;;;;;;;;4989532;28;20016;-90
2022/12/09 00:22:39;;;;;;;;;;;;;;;;;;5005320;28;19922;-89
2022/12/09 00:25:04;;;;;;;;;;;;;;;;;;5005510;28;20633;-89
2022/12/09 00:27:30;;;;;;;;;;;;;;;;;;5005769;28;19929;-90
2022/12/09 00:29:56;;;;;;;;;;;;;;;;;;4989066;28;19929;-89
2022/12/09 00:32:22;;;;;;;;;;;;;;;;;;5005420;28;20294;-89
2022/12/09 00:34:48;;;;;;;;;;;;;;;;;;5005220;28;19927;-89
2022/12/09 00:37:14;;;;;;;;;;;;;;;;;;4988880;28;19922;-90
2022/12/09 00:39:40;;;;;;;;;;;;;;;;;;5005374;28;19972;-89
2022/12/09 00:42:06;;;;;;;;;;;;;;;;;;4988828;28;19922;-89
2022/12/09 00:44:32;;;;;;;;;;;;;;;;;;4989099;28;19922;-89
2022/12/09 00:46:58;;;;;;;;;;;;;;;;;;5005494;28;19922;-89
2022/12/09 00:49:23;;;;;;;;;;;;;;;;;;5005302;28;19969;-89
2022/12/09 00:51:49;;;;;;;;;;;;;;;;;;4988460;28;19980;-89
2022/12/09 00:54:15;;;;;;;;;;;;;;;;;;5004862;28;19965;-90
2022/12/09 00:56:41;;;;;;;;;;;;;;;;;;4988739;28;20405;-89
2022/12/09 00:59:07;;;;;;;;;;;;;;;;;;5005335;28;20258;-89
2022/12/09 01:01:33;;;;;;;;;;;;;;;;;;4988844;28;19922;-89
2022/12/09 01:04:00;;;;;;;;;;;;;;;;;;4988641;28;19973;-89
2022/12/09 01:06:26;;;;;;;;;;;;;;;;;;4988406;28;19922;-90
2022/12/09 01:08:52;;;;;;;;;;;;;;;;;;4988663;28;19933;-90
2022/12/09 01:11:18;;;;;;;;;;;;;;;;;;4988703;28;19926;-89
2022/12/09 01:13:44;;;;;;;;;;;;;;;;;;4973733;28;20012;-89
2022/12/09 01:16:10;;;;;;;;;;;;;;;;;;4988492;28;19976;-89
2022/12/09 01:18:36;;;;;;;;;;;;;;;;;;4988507;28;19929;-89
2022/12/09 01:21:02;;;;;;;;;;;;;;;;;;4988320;28;19922;-90
2022/12/09 01:23:28;;;;;;;;;;;;;;;;;;5005136;28;19922;-89
2022/12/09 01:25:54;;;;;;;;;;;;;;;;;;5004660;28;20388;-89
2022/12/09 01:28:20;;;;;;;;;;;;;;;;;;5004940;28;20436;-90
2022/12/09 01:30:46;;;;;;;;;;;;;;;;;;4988736;28;19923;-89
2022/12/09 01:33:11;;;;;;;;;;;;;;;;;;4989422;28;19929;-90
2022/12/09 01:35:37;;;;;;;;;;;;;;;;;;5008526;28;19930;-89
2022/12/09 01:38:03;;;;;;;;;;;;;;;;;;4992592;28;19922;-89
2022/12/09 01:40:29;;;;;;;;;;;;;;;;;;4992459;28;19949;-90
2022/12/09 01:42:55;;;;;;;;;;;;;;;;;;4978091;28;20389;-89
2022/12/09 01:45:39;;;;;;;;;;;;;;;;;;5008568;28;19973;-90
2022/12/09 01:48:06;;;;;;;;;;;;;;;;;;4992160;28;19930;-89
2022/12/09 01:50:32;;;;;;;;;;;;;;;;;;5008391;28;19965;-89
2022/12/09 01:52:58;;;;;;;;;;;;;;;;;;5008561;28;19926;-89
2022/12/09 01:55:24;;;;;;;;;;;;;;;;;;5008234;28;19926;-89
2022/12/09 01:57:50;;;;;;;;;;;;;;;;;;4991853;28;19933;-89
2022/12/09 02:00:16;;;;;;;;;;;;;;;;;;4992177;28;20278;-89
2022/12/09 02:02:42;;;;;;;;;;;;;;;;;;5008368;28;20370;-89
2022/12/09 02:05:08;;;;;;;;;;;;;;;;;;5008014;28;19922;-89
2022/12/09 02:07:33;;;;;;;;;;;;;;;;;;4991590;28;19922;-89
2022/12/09 02:10:01;;;;;;;;;;;;;;;;;;5008065;28;19926;-88
2022/12/09 02:12:27;;;;;;;;;;;;;;;;;;4991482;28;19922;-89
2022/12/09 02:14:53;;;;;;;;;;;;;;;;;;5007734;28;19926;-89
2022/12/09 02:17:19;;;;;;;;;;;;;;;;;;4991469;28;19977;-89
2022/12/09 02:19:45;;;;;;;;;;;;;;;;;;4991686;28;19922;-89
2022/12/09 02:22:11;;;;;;;;;;;;;;;;;;5007666;28;20009;-89
2022/12/09 02:24:37;;;;;;;;;;;;;;;;;;5007745;28;19926;-89
2022/12/09 02:27:03;;;;;;;;;;;;;;;;;;5007967;28;19926;-89
2022/12/09 02:29:29;;;;;;;;;;;;;;;;;;5007766;28;20378;-89
2022/12/09 02:31:54;;;;;;;;;;;;;;;;;;4991124;28;19937;-89
2022/12/09 02:34:20;;;;;;;;;;;;;;;;;;4991230;28;19926;-89
2022/12/09 02:36:46;;;;;;;;;;;;;;;;;;5007947;28;19922;-89
2022/12/09 02:39:13;;;;;;;;;;;;;;;;;;4991010;28;20382;-88
2022/12/09 02:41:39;;;;;;;;;;;;;;;;;;5007374;28;19922;-89
2022/12/09 02:44:05;;;;;;;;;;;;;;;;;;5007074;28;20345;-89
2022/12/09 02:46:31;;;;;;;;;;;;;;;;;;5007228;28;19973;-89
2022/12/09 02:48:56;;;;;;;;;;;;;;;;;;5007263;28;20365;-90
2022/12/09 02:51:22;;;;;;;;;;;;;;;;;;5007225;28;19929;-90
2022/12/09 02:53:48;;;;;;;;;;;;;;;;;;4990902;28;19933;-89
2022/12/09 02:56:14;;;;;;;;;;;;;;;;;;4991166;28;20368;-90
2022/12/09 02:58:40;;;;;;;;;;;;;;;;;;4991164;28;19933;-89
2022/12/09 03:01:06;;;;;;;;;;;;;;;;;;5006870;28;19985;-90
2022/12/09 03:03:32;;;;;;;;;;;;;;;;;;4991028;28;20425;-89
2022/12/09 03:05:58;;;;;;;;;;;;;;;;;;4990601;28;19972;-89
2022/12/09 03:08:24;;;;;;;;;;;;;;;;;;4990846;28;20271;-89
2022/12/09 03:10:50;;;;;;;;;;;;;;;;;;4990560;28;19926;-89
2022/12/09 03:13:16;;;;;;;;;;;;;;;;;;4990852;28;20068;-89
2022/12/09 03:15:42;;;;;;;;;;;;;;;;;;5006693;28;20358;-89
2022/12/09 03:18:07;;;;;;;;;;;;;;;;;;4990395;28;20005;-89
2022/12/09 03:20:33;;;;;;;;;;;;;;;;;;4990160;28;19929;-89
2022/12/09 03:22:59;;;;;;;;;;;;;;;;;;4990324;28;19926;-90
2022/12/09 03:25:25;;;;;;;;;;;;;;;;;;5006436;28;19930;-89
2022/12/09 03:27:51;;;;;;;;;;;;;;;;;;5006538;28;20362;-90
2022/12/09 03:30:17;;;;;;;;;;;;;;;;;;5006396;28;19922;-89
2022/12/09 03:32:43;;;;;;;;;;;;;;;;;;4990068;28;19925;-89
2022/12/09 03:35:09;;;;;;;;;;;;;;;;;;5006279;28;19932;-90
2022/12/09 03:37:35;;;;;;;;;;;;;;;;;;4990006;28;20013;-89
2022/12/09 03:40:01;;;;;;;;;;;;;;;;;;4990006;28;19922;-90
2022/12/09 03:42:27;;;;;;;;;;;;;;;;;;5006165;28;20350;-89
2022/12/09 03:44:53;;;;;;;;;;;;;;;;;;5006274;28;19922;-89
2022/12/09 03:47:18;;;;;;;;;;;;;;;;;;4989981;28;19941;-89
2022/12/09 03:49:44;;;;;;;;;;;;;;;;;;5006371;28;20322;-89
2022/12/09 03:52:10;;;;;;;;;;;;;;;;;;5006102;28;19992;-89
2022/12/09 03:54:36;;;;;;;;;;;;;;;;;;4989594;28;20020;-89
2022/12/09 03:57:02;;;;;;;;;;;;;;;;;;5005705;28;19922;-89
2022/12/09 03:59:28;;;;;;;;;;;;;;;;;;5006132;28;20358;-90
2022/12/09 04:01:54;;;;;;;;;;;;;;;;;;5005991;28;20281;-90
2022/12/09 04:04:20;;;;;;;;;;;;;;;;;;4989615;28;19933;-89
2022/12/09 04:06:46;;;;;;;;;;;;;;;;;;5006251;28;19988;-89
2022/12/09 04:09:12;;;;;;;;;;;;;;;;;;5005732;28;20377;-90
2022/12/09 04:11:38;;;;;;;;;;;;;;;;;;5005623;28;19922;-90
2022/12/09 04:14:03;;;;;;;;;;;;;;;;;;4989137;28;19937;-89
2022/12/09 04:16:29;;;;;;;;;;;;;;;;;;4989448;28;19972;-89
2022/12/09 04:18:55;;;;;;;;;;;;;;;;;;4989833;28;20331;-90
2022/12/09 04:21:21;;;;;;;;;;;;;;;;;;5005661;28;20326;-89
2022/12/09 04:23:47;;;;;;;;;;;;;;;;;;5006585;28;20271;-90
2022/12/09 04:26:13;;;;;;;;;;;;;;;;;;4995604;28;19921;-90
2022/12/09 04:28:39;;;;;;;;;;;;;;;;;;4995595;28;19929;-89
2022/12/09 04:31:05;;;;;;;;;;;;;;;;;;4995447;28;19928;-89
2022/12/09 04:33:31;;;;;;;;;;;;;;;;;;4995413;28;19944;-89
2022/12/09 04:35:57;;;;;;;;;;;;;;;;;;4995665;28;20307;-89
2022/12/09 04:38:23;;;;;;;;;;;;;;;;;;4995429;28;20011;-89
2022/12/09 04:40:49;;;;;;;;;;;;;;;;;;4995250;28;19953;-89
2022/12/09 04:43:15;;;;;;;;;;;;;;;;;;4995485;28;19921;-89
2022/12/09 04:45:41;;;;;;;;;;;;;;;;;;4995159;28;19921;-89
2022/12/09 04:48:07;;;;;;;;;;;;;;;;;;4995191;28;19922;-89
2022/12/09 04:50:32;;;;;;;;;;;;;;;;;;5011592;28;19921;-88
2022/12/09 04:52:58;;;;;;;;;;;;;;;;;;4995337;28;19968;-89
2022/12/09 04:55:24;;;;;;;;;;;;;;;;;;4995452;28;19975;-89
2022/12/09 04:57:50;;;;;;;;;;;;;;;;;;4994987;28;19944;-89
2022/12/09 05:00:16;;;;;;;;;;;;;;;;;;4995331;28;19996;-89
2022/12/09 05:02:42;;;;;;;;;;;;;;;;;;4995238;28;19928;-89
2022/12/09 05:05:08;;;;;;;;;;;;;;;;;;4995083;28;19928;-89
2022/12/09 05:07:34;;;;;;;;;;;;;;;;;;4996831;28;20020;-89
2022/12/09 05:10:00;;;;;;;;;;;;;;;;;;4999172;28;19925;-89
2022/12/09 05:12:26;;;;;;;;;;;;;;;;;;4998964;28;19973;-89
2022/12/09 05:14:52;;;;;;;;;;;;;;;;;;4999062;28;19977;-89
2022/12/09 05:17:18;;;;;;;;;;;;;;;;;;4998941;28;19972;-89
2022/12/09 05:19:44;;;;;;;;;;;;;;;;;;4999055;28;19921;-90
2022/12/09 05:22:10;;;;;;;;;;;;;;;;;;4998839;28;19926;-90
2022/12/09 05:24:36;;;;;;;;;;;;;;;;;;4998711;28;19933;-90
2022/12/09 05:27:02;;;;;;;;;;;;;;;;;;4998746;28;19960;-89
2022/12/09 05:29:27;;;;;;;;;;;;;;;;;;4998910;28;19921;-89
2022/12/09 05:31:53;;;;;;;;;;;;;;;;;;4998555;28;19983;-90
2022/12/09 05:34:19;;;;;;;;;;;;;;;;;;4998919;28;19933;-90
2022/12/09 05:36:45;;;;;;;;;;;;;;;;;;4999102;28;20357;-89
2022/12/09 05:39:11;;;;;;;;;;;;;;;;;;4999116;28;19921;-92
2022/12/09 05:41:37;;;;;;;;;;;;;;;;;;4998511;28;19929;-91
2022/12/09 05:44:03;;;;;;;;;;;;;;;;;;4998677;28;19928;-90
2022/12/09 05:46:29;;;;;;;;;;;;;;;;;;4998965;28;19963;-91
2022/12/09 05:48:55;;;;;;;;;;;;;;;;;;4998606;28;19921;-91
2022/12/09 05:51:24;;;;;;;;;;;;;;;;;;4998499;28;19921;-92
2022/12/09 05:53:50;;;;;;;;;;;;;;;;;;4998437;28;19951;-91
2022/12/09 05:56:16;;;;;;;;;;;;;;;;;;4998734;28;20013;-91
2022/12/09 05:58:42;;;;;;;;;;;;;;;;;;4998703;28;19943;-91
2022/12/09 06:01:08;;;;;;;;;;;;;;;;;;4998310;28;20008;-92
2022/12/09 06:03:34;;;;;;;;;;;;;;;;;;4998297;28;20007;-92
2022/12/09 06:06:00;;;;;;;;;;;;;;;;;;4998422;28;20281;-91
2022/12/09 06:08:25;;;;;;;;;;;;;;;;;;4998064;28;20339;-91
2022/12/09 06:10:51;;;;;;;;;;;;;;;;;;4998225;28;19926;-91
2022/12/09 06:13:17;;;;;;;;;;;;;;;;;;4998513;28;20008;-91
2022/12/09 06:15:43;;;;;;;;;;;;;;;;;;4998352;28;20374;-91
2022/12/09 06:18:10;;;;;;;;;;;;;;;;;;4997559;28;19940;-91
2022/12/09 06:20:35;;;;;;;;;;;;;;;;;;4997759;28;20056;-92
2022/12/09 06:23:01;;;;;;;;;;;;;;;;;;4998015;28;20008;-92
2022/12/09 06:25:27;;;;;;;;;;;;;;;;;;4997832;28;19925;-92
2022/12/09 06:27:53;;;;;;;;;;;;;;;;;;4997930;28;19929;-92
2022/12/09 06:30:19;;;;;;;;;;;;;;;;;;4997732;28;20015;-90
2022/12/09 06:32:45;;;;;;;;;;;;;;;;;;4997672;28;19922;-90
2022/12/09 06:35:11;;;;;;;;;;;;;;;;;;4997561;28;19952;-90
2022/12/09 06:37:37;;;;;;;;;;;;;;;;;;4997531;28;19922;-89
2022/12/09 06:40:03;;;;;;;;;;;;;;;;;;4997788;28;20328;-90
2022/12/09 06:42:29;;;;;;;;;;;;;;;;;;4997684;28;20351;-89
2022/12/09 06:44:55;;;;;;;;;;;;;;;;;;4997580;28;19965;-90
2022/12/09 06:47:21;;;;;;;;;;;;;;;;;;4997565;28;19921;-90
2022/12/09 06:49:47;;;;;;;;;;;;;;;;;;4997486;28;20012;-90
2022/12/09 06:52:12;;;;;;;;;;;;;;;;;;4997668;28;19922;-90
2022/12/09 06:54:38;;;;;;;;;;;;;;;;;;4997395;28;19932;-90
2022/12/09 06:57:04;;;;;;;;;;;;;;;;;;4997428;28;19921;-90
2022/12/09 06:59:30;;;;;;;;;;;;;;;;;;4997313;28;19933;-90
2022/12/09 07:01:56;;;;;;;;;;;;;;;;;;4997135;28;19921;-90
2022/12/09 07:04:22;;;;;;;;;;;;;;;;;;4997190;28;19922;-90
2022/12/09 07:06:48;;;;;;;;;;;;;;;;;;4997031;28;20025;-90
2022/12/09 07:09:14;;;;;;;;;;;;;;;;;;4997057;28;19929;-90
2022/12/09 07:11:41;;;;;;;;;;;;;;;;;;4997317;28;19926;-89
2022/12/09 07:14:07;;;;;;;;;;;;;;;;;;4996960;28;19922;-90
2022/12/09 07:16:33;;;;;;;;;;;;;;;;;;4997142;28;19975;-90
2022/12/09 07:18:59;;;;;;;;;;;;;;;;;;4996787;28;20012;-91
2022/12/09 07:21:25;;;;;;;;;;;;;;;;;;4996735;28;19964;-90
2022/12/09 07:23:51;;;;;;;;;;;;;;;;;;4996553;28;20172;-90
2022/12/09 07:26:17;;;;;;;;;;;;;;;;;;4996805;28;19972;-90
2022/12/09 07:28:45;;;;;;;;;;;;;;;;;;4996717;28;19936;-90
2022/12/09 07:31:11;;;;;;;;;;;;;;;;;;4995678;28;19921;-90
2022/12/09 07:33:37;;;;;;;;;;;;;;;;;;4996884;28;19921;-90
2022/12/09 07:36:06;;;;;;;;;;;;;;;;;;4996451;28;20323;-90
2022/12/09 07:38:32;;;;;;;;;;;;;;;;;;4996501;28;19922;-90
2022/12/09 07:40:58;;;;;;;;;;;;;;;;;;4996778;28;20253;-90
2022/12/09 07:43:24;;;;;;;;;;;;;;;;;;4996738;28;20262;-90
2022/12/09 07:45:50;;;;;;;;;;;;;;;;;;4996441;28;19932;-90
2022/12/09 07:48:16;;;;;;;;;;;;;;;;;;4996258;28;19922;-90
2022/12/09 07:50:42;;;;;;;;;;;;;;;;;;4996178;28;19926;-91
2022/12/09 07:53:08;;;;;;;;;;;;;;;;;;4996462;28;19980;-91
2022/12/09 07:55:34;;;;;;;;;;;;;;;;;;4996183;28;19980;-91
2022/12/09 07:58:00;;;;;;;;;;;;;;;;;;4996490;28;19925;-91
2022/12/09 08:00:25;;;;;;;;;;;;;;;;;;4996335;28;19947;-91
2022/12/09 08:02:52;;;;;;;;;;;;;;;;;;4996382;28;19960;-91
2022/12/09 08:05:18;;;;;;;;;;;;;;;;;;4995988;28;19976;-91
2022/12/09 08:07:44;;;;;;;;;;;;;;;;;;4996001;28;19928;-90
2022/12/09 08:10:10;;;;;;;;;;;;;;;;;;4995930;28;19926;-90
2022/12/09 08:12:36;;;;;;;;;;;;;;;;;;4995910;28;19921;-91
2022/12/09 08:15:02;;;;;;;;;;;;;;;;;;4995987;28;19932;-91
2022/12/09 08:17:29;;;;;;;;;;;;;;;;;;4995857;28;19928;-89
2022/12/09 08:19:55;;;;;;;;;;;;;;;;;;4995659;28;19925;-90
2022/12/09 08:22:22;;;;;;;;;;;;;;;;;;4995615;28;19975;-93
2022/12/09 08:24:48;;;;;;;;;;;;;;;;;;4995478;28;20008;-90
2022/12/09 08:27:13;;;;;;;;;;;;;;;;;;4995550;28;20005;-90
2022/12/09 08:29:40;;;;;;;;;;;;;;;;;;4995939;28;19980;-90
2022/12/09 08:32:05;;;;;;;;;;;;;;;;;;4995960;28;19975;-90
2022/12/09 08:34:31;;;;;;;;;;;;;;;;;;4995393;28;20405;-90
2022/12/09 08:36:57;;;;;;;;;;;;;;;;;;4995352;28;19968;-90
2022/12/09 08:39:23;;;;;;;;;;;;;;;;;;4995561;28;20376;-90
2022/12/09 08:41:49;;;;;;;;;;;;;;;;;;4978238;28;19972;-91
2022/12/09 08:44:15;;;;;;;;;;;;;;;;;;4976086;28;19992;-90
2022/12/09 08:46:41;;;;;;;;;;;;;;;;;;4986485;28;19922;-89
2022/12/09 08:49:07;;;;;;;;;;;;;;;;;;4995218;28;19983;-89
2022/12/09 08:51:33;;;;;;;;;;;;;;;;;;4995207;28;20020;-89
2022/12/09 08:53:59;;;;;;;;;;;;;;;;;;4995231;28;19921;-89
2022/12/09 08:56:25;;;;;;;;;;;;;;;;;;4995394;28;19928;-92
2022/12/09 08:58:51;;;;;;;;;;;;;;;;;;4995367;28;19929;-91
2022/12/09 09:01:17;;;;;;;;;;;;;;;;;;4995228;28;19971;-91
2022/12/09 09:03:43;;;;;;;;;;;;;;;;;;4995001;28;19945;-89
2022/12/09 09:06:09;;;;;;;;;;;;;;;;;;4995206;28;19921;-90
2022/12/09 09:08:34;;;;;;;;;;;;;;;;;;4995178;28;19976;-91
2022/12/09 09:11:00;;;;;;;;;;;;;;;;;;4995171;28;19921;-91
2022/12/09 09:13:26;;;;;;;;;;;;;;;;;;4995093;28;20234;-90
2022/12/09 09:15:52;;;;;;;;;;;;;;;;;;4995197;28;20424;-91
2022/12/09 09:18:18;;;;;;;;;;;;;;;;;;4994929;28;19921;-91
2022/12/09 09:20:51;;;;;;;;;;;;;;;;;;4995234;28;19925;-90
2022/12/09 09:23:17;;;;;;;;;;;;;;;;;;4996109;28;20029;-90
2022/12/09 09:25:43;;;;;;;;;;;;;;;;;;4994812;28;19972;-91
2022/12/09 09:28:09;;;;;;;;;;;;;;;;;;4994892;28;19922;-89
2022/12/09 09:30:34;;;;;;;;;;;;;;;;;;4994950;28;20012;-91
2022/12/09 09:33:00;;;;;;;;;;;;;;;;;;4994813;28;20010;-91
2022/12/09 09:35:26;;;;;;;;;;;;;;;;;;4995419;28;19932;-89
2022/12/09 09:37:53;;;;;;;;;;;;;;;;;;4994671;28;19921;-89
2022/12/09 09:40:19;;;;;;;;;;;;;;;;;;4994794;28;20384;-89
2022/12/09 09:42:45;;;;;;;;;;;;;;;;;;4994870;28;19922;-90
2022/12/09 09:45:11;;;;;;;;;;;;;;;;;;4994609;28;20019;-89
2022/12/09 09:47:37;;;;;;;;;;;;;;;;;;4994936;28;20377;-89
2022/12/09 09:50:03;;;;;;;;;;;;;;;;;;4994821;28;19922;-90
2022/12/09 09:52:29;;;;;;;;;;;;;;;;;;4994854;28;20000;-89
2022/12/09 09:54:55;;;;;;;;;;;;;;;;;;4998256;28;20024;-89
2022/12/09 09:57:21;;;;;;;;;;;;;;;;;;5001755;28;19985;-89
2022/12/09 09:59:48;;;;;;;;;;;;;;;;;;5001232;28;20325;-89
2022/12/09 10:02:14;;;;;;;;;;;;;;;;;;5016269;28;19924;-89
2022/12/09 10:04:40;;;;;;;;;;;;;;;;;;5012147;28;19972;-89
2022/12/09 10:07:06;;;;;;;;;;;;;;;;;;4998340;28;20016;-89
2022/12/09 10:09:32;;;;;;;;;;;;;;;;;;4998104;28;20426;-89
2022/12/09 10:11:58;;;;;;;;;;;;;;;;;;4998000;28;20015;-89
2022/12/09 10:14:24;;;;;;;;;;;;;;;;;;4997923;28;19973;-89
2022/12/09 10:16:50;;;;;;;;;;;;;;;;;;4998296;28;19925;-89
2022/12/09 10:19:16;;;;;;;;;;;;;;;;;;4998161;28;19929;-90
2022/12/09 10:21:42;;;;;;;;;;;;;;;;;;4998140;28;19928;-88
2022/12/09 10:24:07;;;;;;;;;;;;;;;;;;4997686;28;19921;-88
2022/12/09 10:26:33;;;;;;;;;;;;;;;;;;4997853;28;20373;-89
2022/12/09 10:28:59;;;;;;;;;;;;;;;;;;5014175;28;20045;-88
2022/12/09 10:31:25;;;;;;;;;;;;;;;;;;4997647;28;20012;-88
2022/12/09 10:33:51;;;;;;;;;;;;;;;;;;4997684;28;19965;-89
2022/12/09 10:36:17;;;;;;;;;;;;;;;;;;4997695;28;19972;-89
2022/12/09 10:38:43;;;;;;;;;;;;;;;;;;4997631;28;19975;-88
2022/12/09 10:41:09;;;;;;;;;;;;;;;;;;4997536;28;20328;-88
2022/12/09 10:43:40;;;;;;;;;;;;;;;;;;4997410;28;20304;-88
2022/12/09 10:46:06;;;;;;;;;;;;;;;;;;4997742;28;19921;-89
2022/12/09 10:48:32;;;;;;;;;;;;;;;;;;4997415;28;20439;-88
2022/12/09 10:50:58;;;;;;;;;;;;;;;;;;4997431;28;19925;-88
2022/12/09 10:53:24;;;;;;;;;;;;;;;;;;4997256;28;19922;-89
2022/12/09 10:55:50;;;;;;;;;;;;;;;;;;4997436;28;19929;-89
2022/12/09 10:58:16;;;;;;;;;;;;;;;;;;4997285;28;20258;-89
2022/12/09 11:00:42;;;;;;;;;;;;;;;;;;4997418;28;19959;-89
2022/12/09 11:03:08;;;;;;;;;;;;;;;;;;4997478;28;19921;-92
2022/12/09 11:05:34;;;;;;;;;;;;;;;;;;4997421;28;19925;-89
2022/12/09 11:08:00;;;;;;;;;;;;;;;;;;4997332;28;19932;-91
2022/12/09 11:10:26;;;;;;;;;;;;;;;;;;4997299;28;19922;-90
2022/12/09 11:12:52;;;;;;;;;;;;;;;;;;4997434;28;19926;-91
2022/12/09 11:15:18;;;;;;;;;;;;;;;;;;4996767;28;19932;-90
2022/12/09 11:17:44;;;;;;;;;;;;;;;;;;4997005;28;19952;-89
2022/12/09 11:20:10;;;;;;;;;;;;;;;;;;4998470;28;19931;-89
2022/12/09 11:22:39;;;;;;;;;;;;;;;;;;4998190;28;19929;-90
2022/12/09 11:25:05;;;;;;;;;;;;;;;;;;4997907;28;19952;-91
2022/12/09 11:27:31;;;;;;;;;;;;;;;;;;4996710;28;19922;-90
2022/12/09 11:29:57;;;;;;;;;;;;;;;;;;4996596;28;19927;-89
2022/12/09 11:32:23;;;;;;;;;;;;;;;;;;4996888;28;19985;-89
2022/12/09 11:34:49;;;;;;;;;;;;;;;;;;4996742;28;20016;-89
2022/12/09 11:37:14;;;;;;;;;;;;;;;;;;4996632;28;19922;-89
2022/12/09 11:39:40;;;;;;;;;;;;;;;;;;4996432;28;19925;-88
2022/12/09 11:42:12;;;;;;;;;;;;;;;;;;4996245;28;19992;-90
2022/12/09 11:44:38;;;;;;;;;;;;;;;;;;4996270;28;19971;-89
2022/12/09 11:47:04;;;;;;;;;;;;;;;;;;4996305;28;20347;-90
2022/12/09 11:49:30;;;;;;;;;;;;;;;;;;4996128;28;19933;-89
2022/12/09 11:51:56;;;;;;;;;;;;;;;;;;4996155;28;19922;-90
2022/12/09 11:54:22;;;;;;;;;;;;;;;;;;4995871;28;19928;-89
2022/12/09 11:56:48;;;;;;;;;;;;;;;;;;4996191;28;19928;-90
2022/12/09 11:59:14;;;;;;;;;;;;;;;;;;4995978;28;19928;-90
2022/12/09 12:01:40;;;;;;;;;;;;;;;;;;4996232;28;19972;-90
2022/12/09 12:04:06;;;;;;;;;;;;;;;;;;4995779;28;19922;-90
2022/12/09 12:06:31;;;;;;;;;;;;;;;;;;4996171;28;19957;-90
2022/12/09 12:08:57;;;;;;;;;;;;;;;;;;4995936;28;19984;-89
2022/12/09 12:11:23;;;;;;;;;;;;;;;;;;4995754;28;19925;-89
2022/12/09 12:13:49;;;;;;;;;;;;;;;;;;4995755;28;20024;-90
2022/12/09 12:16:15;;;;;;;;;;;;;;;;;;4995468;28;20024;-89
2022/12/09 12:18:41;;;;;;;;;;;;;;;;;;4995404;28;19922;-90
2022/12/09 12:21:07;;;;;;;;;;;;;;;;;;4995513;28;19921;-90
2022/12/09 12:23:33;;;;;;;;;;;;;;;;;;4995438;28;20059;-89
2022/12/09 12:25:59;;;;;;;;;;;;;;;;;;4995399;28;20024;-89
2022/12/09 12:28:25;;;;;;;;;;;;;;;;;;4995442;28;19921;-90
2022/12/09 12:30:51;;;;;;;;;;;;;;;;;;4995505;28;19926;-89
2022/12/09 12:33:17;;;;;;;;;;;;;;;;;;4995881;28;20289;-89
2022/12/09 12:35:44;;;;;;;;;;;;;;;;;;4995558;28;20365;-89
2022/12/09 12:38:10;;;;;;;;;;;;;;;;;;4995438;28;19925;-89
2022/12/09 12:40:36;;;;;;;;;;;;;;;;;;4995686;28;20362;-89
2022/12/09 12:48:32;;;;;;;;;;;;;;;;;;4995011;28;20008;-88
2022/12/09 12:50:57;;;;;;;;;;;;;;;;;;4995251;28;20008;-91
2022/12/09 12:53:23;;;;;;;;;;;;;;;;;;4981571;28;19961;-89
2022/12/09 12:55:49;;;;;;;;;;;;;;;;;;4975735;28;20105;-88
2022/12/09 12:58:15;;;;;;;;;;;;;;;;;;4991962;28;20289;-88
2022/12/09 13:00:41;;;;;;;;;;;;;;;;;;4975532;28;19928;-89
2022/12/09 13:03:07;;;;;;;;;;;;;;;;;;4992141;28;20331;-89
2022/12/09 13:05:33;;;;;;;;;;;;;;;;;;4992195;28;20012;-89
2022/12/09 13:07:59;;;;;;;;;;;;;;;;;;4975651;28;19922;-88
2022/12/09 13:10:25;;;;;;;;;;;;;;;;;;4975838;28;20028;-88
2022/12/09 13:12:55;;;;;;;;;;;;;;;;;;4991683;28;19997;-88
2022/12/09 13:15:21;;;;;;;;;;;;;;;;;;4975610;28;19926;-88
2022/12/09 13:17:47;;;;;;;;;;;;;;;;;;4991715;28;19980;-88
2022/12/09 13:20:13;;;;;;;;;;;;;;;;;;4991725;28;20273;-88
2022/12/09 13:22:39;;;;;;;;;;;;;;;;;;4977697;28;20399;-88
2022/12/09 13:25:04;;;;;;;;;;;;;;;;;;4994821;28;19932;-88
2022/12/09 13:27:33;;;;;;;;;;;;;;;;;;4994602;28;21453;-88
2022/12/09 13:30:08;;;;;;;;;;;;;;;;;;4997781;28;19968;-88
2022/12/09 13:32:34;;;;;;;;;;;;;;;;;;4998759;28;19925;-88
2022/12/09 13:35:00;;;;;;;;;;;;;;;;;;4998763;28;19980;-88
2022/12/09 13:37:26;;;;;;;;;;;;;;;;;;4998783;28;19965;-88
2022/12/09 13:39:52;;;;;;;;;;;;;;;;;;4999013;28;19922;-88
2022/12/09 13:45:02;;;;;;;;;;;;;;;;;;4998586;28;19926;-87
2022/12/09 13:47:28;;;;;;;;;;;;;;;;;;4998859;28;19975;-87
2022/12/09 13:49:54;;;;;;;;;;;;;;;;;;4998534;28;19921;-89
2022/12/09 13:52:20;;;;;;;;;;;;;;;;;;4998662;28;20395;-88
2022/12/09 13:54:46;;;;;;;;;;;;;;;;;;4999189;28;19925;-88
2022/12/09 13:57:12;;;;;;;;;;;;;;;;;;4998717;28;20250;-87
2022/12/09 13:59:38;;;;;;;;;;;;;;;;;;4998382;28;20289;-88
2022/12/09 14:02:04;;;;;;;;;;;;;;;;;;5000761;28;19929;-88
2022/12/09 14:04:30;;;;;;;;;;;;;;;;;;4998576;28;19925;-88
2022/12/09 14:06:56;;;;;;;;;;;;;;;;;;4999393;28;19969;-89
2022/12/09 14:09:22;;;;;;;;;;;;;;;;;;5001519;28;19988;-89
2022/12/09 14:11:48;;;;;;;;;;;;;;;;;;5001668;28;19928;-88
2022/12/09 14:14:14;;;;;;;;;;;;;;;;;;5001387;28;19929;-89
2022/12/09 14:16:40;;;;;;;;;;;;;;;;;;5002340;28;19971;-89
2022/12/09 14:19:06;;;;;;;;;;;;;;;;;;5003881;28;19921;-89
2022/12/09 14:21:32;;;;;;;;;;;;;;;;;;5007765;28;19921;-88
2022/12/09 14:23:58;;;;;;;;;;;;;;;;;;5020691;28;19913;-89
2022/12/09 14:26:24;;;;;;;;;;;;;;;;;;5013230;28;20258;-89
2022/12/09 14:28:50;;;;;;;;;;;;;;;;;;4999956;28;20156;-89
2022/12/09 14:31:16;;;;;;;;;;;;;;;;;;4999069;28;20344;-89
2022/12/09 14:33:42;;;;;;;;;;;;;;;;;;4999457;28;19921;-90
2022/12/09 14:36:07;;;;;;;;;;;;;;;;;;4999153;28;19926;-90
2022/12/09 14:38:33;;;;;;;;;;;;;;;;;;4997833;28;19921;-89
2022/12/09 14:40:59;;;;;;;;;;;;;;;;;;4996944;28;19928;-89
2022/12/09 14:43:25;;;;;;;;;;;;;;;;;;4997585;28;19928;-87
2022/12/09 14:45:51;;;;;;;;;;;;;;;;;;4997611;28;19925;-87
2022/12/09 14:48:17;;;;;;;;;;;;;;;;;;4997333;28;19921;-87
2022/12/09 14:50:43;;;;;;;;;;;;;;;;;;4997320;28;19929;-88
2022/12/09 14:53:09;;;;;;;;;;;;;;;;;;4997780;28;19921;-89
2022/12/09 14:55:35;;;;;;;;;;;;;;;;;;4997231;28;20376;-90
2022/12/09 14:58:01;;;;;;;;;;;;;;;;;;4997212;28;19925;-88
2022/12/09 15:00:27;;;;;;;;;;;;;;;;;;4997172;28;19947;-88
2022/12/09 15:02:53;;;;;;;;;;;;;;;;;;4997016;28;19921;-88
2022/12/09 15:05:19;;;;;;;;;;;;;;;;;;4997240;28;19921;-88
2022/12/09 15:07:45;;;;;;;;;;;;;;;;;;4997330;28;19921;-88
2022/12/09 15:10:11;;;;;;;;;;;;;;;;;;4996885;28;19921;-89
2022/12/09 15:12:36;;;;;;;;;;;;;;;;;;4982472;28;19922;-90
2022/12/09 15:15:02;;;;;;;;;;;;;;;;;;4993675;28;19980;-90
2022/12/09 15:17:28;;;;;;;;;;;;;;;;;;4977578;28;19984;-89
2022/12/09 15:19:54;;;;;;;;;;;;;;;;;;4993756;28;19989;-89
2022/12/09 15:22:20;;;;;;;;;;;;;;;;;;4977691;28;20377;-88
2022/12/09 15:24:46;;;;;;;;;;;;;;;;;;4993467;28;20013;-91
2022/12/09 15:27:12;;;;;;;;;;;;;;;;;;4977854;28;20374;-91
2022/12/09 15:29:38;;;;;;;;;;;;;;;;;;4977581;28;20396;-91
2022/12/09 15:32:04;;;;;;;;;;;;;;;;;;4977934;28;19929;-90
2022/12/09 15:34:30;;;;;;;;;;;;;;;;;;4978472;28;19926;-91
2022/12/09 15:36:56;;;;;;;;;;;;;;;;;;4977083;28;19921;-90
2022/12/09 15:39:22;;;;;;;;;;;;;;;;;;4976911;28;19922;-90
2022/12/09 15:42:06;;;;;;;;;;;;;;;;;;4976931;28;19976;-90
2022/12/09 15:44:32;;;;;;;;;;;;;;;;;;4976998;28;19956;-89
2022/12/09 15:46:57;;;;;;;;;;;;;;;;;;4976770;28;19925;-90
2022/12/09 15:49:23;;;;;;;;;;;;;;;;;;4977145;28;19921;-89
2022/12/09 15:51:49;;;;;;;;;;;;;;;;;;4975635;28;20359;-88
2022/12/09 15:54:15;;;;;;;;;;;;;;;;;;4976569;28;19922;-90
2022/12/09 15:56:41;;;;;;;;;;;;;;;;;;4976585;28;19922;-89
2022/12/09 15:59:07;;;;;;;;;;;;;;;;;;4976542;28;19922;-89
2022/12/09 16:01:33;;;;;;;;;;;;;;;;;;4976769;28;20273;-89
2022/12/09 16:03:59;;;;;;;;;;;;;;;;;;4976749;28;19922;-90
2022/12/09 16:06:25;;;;;;;;;;;;;;;;;;4976316;28;19928;-89
2022/12/09 16:08:51;;;;;;;;;;;;;;;;;;4976226;28;20015;-89
2022/12/09 16:11:17;;;;;;;;;;;;;;;;;;4976528;28;19922;-89
2022/12/09 16:13:43;;;;;;;;;;;;;;;;;;4976597;28;19961;-89
2022/12/09 16:16:09;;;;;;;;;;;;;;;;;;4976117;28;19927;-90
2022/12/09 16:18:35;;;;;;;;;;;;;;;;;;4976239;28;19921;-89
2022/12/09 16:21:01;;;;;;;;;;;;;;;;;;4975964;28;19922;-89
2022/12/09 16:23:27;;;;;;;;;;;;;;;;;;4976436;28;19972;-94
2022/12/09 16:25:53;;;;;;;;;;;;;;;;;;4978541;28;19934;-89
2022/12/09 16:28:19;;;;;;;;;;;;;;;;;;4976261;28;19928;-91
2022/12/09 16:30:45;;;;;;;;;;;;;;;;;;4975901;28;19921;-90
2022/12/09 16:33:11;;;;;;;;;;;;;;;;;;4976230;28;19922;-90
2022/12/09 16:35:37;;;;;;;;;;;;;;;;;;4975650;28;19926;-90
2022/12/09 16:38:02;;;;;;;;;;;;;;;;;;4975873;28;19922;-89
2022/12/09 16:40:31;;;;;;;;;;;;;;;;;;4975989;28;20012;-89
2022/12/09 16:42:57;;;;;;;;;;;;;;;;;;4976159;28;19928;-92
2022/12/09 16:45:23;;;;;;;;;;;;;;;;;;4976012;28;20016;-91